Time;durP1;ratioP1;P1;durP2;ratioP2;P2;SDS_P1;SDS_P2;PMS_P1;PMS_P2;Temp;Humidity;BMP_temperature;BMP_pressure;BME280_temperature;BME280_humidity;BME280_pressure;Samples;Min_cycle;Max_cycle;Signal;HPM_P1;HPM_P2
2023/05/11 00:00:02;;;;;;;2.92;2.13;;;12.50;99.90;;;;;;5069359;28;20028;-60
2023/05/11 00:02:28;;;;;;;9.48;2.00;;;12.50;99.90;;;;;;5069509;28;20403;-62
2023/05/11 00:04:54;;;;;;;4.38;1.92;;;12.50;99.90;;;;;;5073667;28;20028;-59
2023/05/11 00:07:20;;;;;;;3.20;1.67;;;12.50;99.90;;;;;;5080514;28;20020;-62
2023/05/11 00:09:45;;;;;;;7.38;2.05;;;12.50;99.90;;;;;;5070912;28;20119;-61
2023/05/11 00:12:12;;;;;;;2.95;1.35;;;12.40;99.90;;;;;;5071436;28;20107;-62
2023/05/11 00:14:37;;;;;;;3.15;1.00;;;12.40;99.90;;;;;;5071175;28;20610;-62
2023/05/11 00:17:03;;;;;;;2.03;0.68;;;12.30;99.90;;;;;;5077746;28;20111;-61
2023/05/11 00:19:30;;;;;;;1.63;1.10;;;12.30;99.90;;;;;;5071639;28;20473;-62
2023/05/11 00:21:57;;;;;;;1.63;1.15;;;12.30;99.90;;;;;;5068769;28;20498;-61
2023/05/11 00:24:22;;;;;;;4.20;0.70;;;12.30;99.90;;;;;;5069017;28;20431;-62
2023/05/11 00:26:48;;;;;;;5.97;0.70;;;12.10;99.90;;;;;;5067391;28;20075;-63
2023/05/11 00:29:13;;;;;;;1.90;0.80;;;12.10;99.90;;;;;;5065110;28;20087;-63
2023/05/11 00:31:39;;;;;;;0.73;0.60;;;12.10;99.90;;;;;;5069654;28;20033;-63
2023/05/11 00:34:05;;;;;;;4.20;0.80;;;12.10;99.90;;;;;;5067104;28;20032;-62
2023/05/11 00:36:32;;;;;;;2.55;1.00;;;12.00;99.90;;;;;;5068811;28;20079;-61
2023/05/11 00:38:57;;;;;;;3.30;1.00;;;12.00;99.90;;;;;;5069568;28;20128;-62
2023/05/11 00:41:23;;;;;;;1.67;0.90;;;11.80;99.90;;;;;;5062719;28;20103;-62
2023/05/11 00:43:48;;;;;;;1.80;0.90;;;11.90;99.90;;;;;;5067857;28;20044;-62
2023/05/11 00:46:14;;;;;;;3.15;1.20;;;11.90;99.90;;;;;;5068414;28;21017;-62
2023/05/11 00:48:39;;;;;;;3.55;1.25;;;11.80;99.90;;;;;;5069151;28;20217;-61
2023/05/11 00:51:05;;;;;;;2.10;1.20;;;11.80;99.90;;;;;;5072700;28;20027;-61
2023/05/11 00:53:31;;;;;;;2.35;1.20;;;11.90;99.90;;;;;;5071468;28;20036;-62
2023/05/11 00:55:58;;;;;;;3.92;1.55;;;11.90;99.90;;;;;;5069367;28;20032;-61
2023/05/11 00:58:24;;;;;;;3.42;1.80;;;11.90;99.90;;;;;;5069451;28;20040;-62
2023/05/11 01:00:50;;;;;;;4.63;1.85;;;11.90;99.90;;;;;;5068463;28;20119;-61
2023/05/11 01:03:16;;;;;;;4.75;1.98;;;11.80;99.90;;;;;;5068606;28;20032;-62
2023/05/11 01:05:59;;;;;;;3.25;1.98;;;11.90;99.90;;;;;;5069472;28;20032;-61
2023/05/11 01:08:37;;;;;;;8.52;2.47;;;11.90;99.90;;;;;;5073520;28;20029;-62
2023/05/11 01:11:14;;;;;;;9.20;2.47;;;11.80;99.90;;;;;;5068446;28;20082;-60
2023/05/11 01:13:47;;;;;;;5.55;2.42;;;11.90;99.90;;;;;;5070406;28;20035;-62
2023/05/11 01:16:21;;;;;;;6.55;2.30;;;11.90;99.90;;;;;;5069979;28;20032;-62
2023/05/11 01:19:05;;;;;;;3.25;2.03;;;12.00;99.90;;;;;;5062558;28;20423;-62
2023/05/11 01:21:32;;;;;;;3.90;2.63;;;11.90;99.90;;;;;;5062273;28;20029;-60
2023/05/11 01:24:08;;;;;;;7.28;2.47;;;11.90;99.90;;;;;;5066491;28;20444;-61
2023/05/11 01:27:04;;;;;;;4.45;2.65;;;12.00;99.90;;;;;;5070025;28;20154;-62
2023/05/11 01:29:45;;;;;;;4.65;2.28;;;12.00;99.90;;;;;;5067184;28;20021;-60
2023/05/11 01:32:20;;;;;;;6.65;3.05;;;12.00;99.90;;;;;;5069782;28;20181;-61
2023/05/11 01:34:49;;;;;;;9.23;3.13;;;12.00;99.90;;;;;;5068566;28;20036;-61
2023/05/11 01:37:20;;;;;;;6.43;3.28;;;11.90;99.90;;;;;;5071372;28;20027;-61
2023/05/11 01:40:03;;;;;;;8.40;4.22;;;11.90;99.90;;;;;;5067128;28;20020;-62
2023/05/11 01:42:39;;;;;;;7.75;3.22;;;11.90;99.90;;;;;;5068667;28;20029;-62
2023/05/11 01:45:07;;;;;;;9.13;4.50;;;11.80;99.90;;;;;;5070587;28;20020;-59
2023/05/11 01:47:33;;;;;;;10.27;4.05;;;11.70;99.90;;;;;;5072865;28;20037;-61
2023/05/11 01:50:01;;;;;;;11.52;4.00;;;11.70;99.90;;;;;;5068572;28;20037;-61
2023/05/11 01:52:29;;;;;;;10.75;4.18;;;11.70;99.90;;;;;;5067254;28;20056;-60
2023/05/11 01:54:56;;;;;;;11.60;3.78;;;11.60;99.90;;;;;;5067673;28;20128;-62
2023/05/11 01:57:23;;;;;;;8.30;3.42;;;11.60;99.90;;;;;;5064838;28;20381;-62
2023/05/11 01:59:50;;;;;;;11.02;4.53;;;11.60;99.90;;;;;;5061238;28;20024;-61
2023/05/11 02:02:18;;;;;;;16.20;4.53;;;11.60;99.90;;;;;;5062022;28;20035;-62
2023/05/11 02:04:45;;;;;;;8.85;4.03;;;11.60;99.90;;;;;;5063480;28;20025;-62
2023/05/11 02:07:13;;;;;;;8.98;3.83;;;11.60;99.90;;;;;;5061055;28;20043;-62
2023/05/11 02:09:40;;;;;;;11.07;4.18;;;11.70;99.90;;;;;;5059144;28;20508;-61
2023/05/11 02:12:08;;;;;;;8.75;4.30;;;11.70;99.90;;;;;;5066951;28;20119;-62
2023/05/11 02:14:35;;;;;;;11.70;5.22;;;11.80;99.90;;;;;;5069075;28;20127;-61
2023/05/11 02:17:03;;;;;;;8.55;4.70;;;11.80;99.90;;;;;;5066264;28;20029;-60
2023/05/11 02:19:30;;;;;;;17.05;4.88;;;11.90;99.90;;;;;;5065451;28;20024;-62
2023/05/11 02:21:57;;;;;;;11.30;4.13;;;11.90;99.90;;;;;;5068614;28;20107;-61
2023/05/11 02:24:24;;;;;;;12.38;5.05;;;12.00;99.90;;;;;;5060885;28;20097;-62
2023/05/11 02:26:49;;;;;;;10.75;5.05;;;12.10;99.90;;;;;;5072625;28;20503;-61
2023/05/11 02:29:15;;;;;;;11.68;4.43;;;12.10;99.90;;;;;;5065530;28;20116;-62
2023/05/11 02:31:45;;;;;;;12.48;4.45;;;12.00;99.90;;;;;;5075546;28;20056;-62
2023/05/11 02:34:20;;;;;;;12.90;4.40;;;12.00;99.90;;;;;;5069197;28;20037;-63
2023/05/11 02:36:52;;;;;;;8.63;4.40;;;12.00;99.90;;;;;;5073693;28;20556;-62
2023/05/11 02:39:22;;;;;;;10.55;4.32;;;12.00;99.90;;;;;;5071010;28;20122;-63
2023/05/11 02:41:55;;;;;;;7.95;4.70;;;12.00;99.90;;;;;;5071961;28;20063;-62
2023/05/11 02:44:23;;;;;;;12.10;4.60;;;11.90;99.90;;;;;;5068611;28;20280;-60
2023/05/11 02:46:50;;;;;;;13.07;4.15;;;11.90;99.90;;;;;;5075022;28;20028;-62
2023/05/11 02:49:18;;;;;;;11.38;3.90;;;12.00;99.90;;;;;;5072906;28;20032;-60
2023/05/11 02:51:45;;;;;;;5.70;3.58;;;11.90;99.90;;;;;;5075036;28;20032;-61
2023/05/11 02:54:11;;;;;;;8.20;3.67;;;11.90;99.90;;;;;;5070733;28;20100;-61
2023/05/11 02:56:37;;;;;;;8.40;4.93;;;11.90;99.90;;;;;;5076524;28;20024;-61
2023/05/11 02:59:03;;;;;;;17.40;4.80;;;11.90;99.90;;;;;;5072428;28;20614;-62
2023/05/11 03:01:29;;;;;;;9.60;4.57;;;11.90;99.90;;;;;;5069487;28;20020;-61
2023/05/11 03:03:55;;;;;;;9.85;5.53;;;11.80;99.90;;;;;;5075744;28;20036;-62
2023/05/11 03:06:21;;;;;;;13.52;5.18;;;11.80;99.90;;;;;;5080456;28;22145;-62
2023/05/11 03:08:47;;;;;;;8.65;4.38;;;11.80;99.90;;;;;;5073448;28;20036;-62
2023/05/11 03:11:14;;;;;;;8.40;4.75;;;11.70;99.90;;;;;;5068810;28;20024;-62
2023/05/11 03:13:44;;;;;;;10.18;5.00;;;11.70;99.90;;;;;;5071979;28;20031;-62
2023/05/11 03:16:12;;;;;;;11.50;4.43;;;11.70;99.90;;;;;;5071889;28;20066;-62
2023/05/11 03:18:38;;;;;;;12.90;4.80;;;11.70;99.90;;;;;;5070925;28;20427;-61
2023/05/11 03:21:05;;;;;;;8.25;4.78;;;11.70;99.90;;;;;;5068263;28;20028;-61
2023/05/11 03:23:31;;;;;;;11.48;4.65;;;11.80;99.90;;;;;;5069337;28;20039;-59
2023/05/11 03:25:58;;;;;;;11.15;4.95;;;11.80;99.90;;;;;;5075488;28;20100;-62
2023/05/11 03:28:25;;;;;;;7.90;4.32;;;11.60;99.90;;;;;;5064402;28;20103;-61
2023/05/11 03:30:52;;;;;;;16.25;5.25;;;11.50;99.90;;;;;;5073806;28;20047;-61
2023/05/11 03:33:19;;;;;;;14.43;5.35;;;11.40;99.90;;;;;;5063303;28;20033;-60
2023/05/11 03:35:48;;;;;;;11.23;5.30;;;11.30;99.90;;;;;;5072801;28;20051;-60
2023/05/11 03:38:14;;;;;;;17.98;6.20;;;11.20;99.90;;;;;;5073389;28;20047;-61
2023/05/11 03:40:41;;;;;;;12.60;4.80;;;11.20;99.90;;;;;;5061566;28;20086;-62
2023/05/11 03:43:10;;;;;;;13.13;5.85;;;11.30;99.90;;;;;;5072228;28;20082;-61
2023/05/11 03:45:37;;;;;;;13.90;5.82;;;11.30;99.90;;;;;;5070471;28;20033;-61
2023/05/11 03:48:04;;;;;;;17.25;6.60;;;11.40;99.90;;;;;;5071431;28;20118;-61
2023/05/11 03:50:30;;;;;;;12.43;6.50;;;11.30;99.90;;;;;;5067331;28;20028;-60
2023/05/11 03:52:56;;;;;;;15.95;6.38;;;11.30;99.90;;;;;;5067366;28;20035;-61
2023/05/11 03:55:23;;;;;;;14.95;5.93;;;11.30;99.90;;;;;;5066777;28;20123;-61
2023/05/11 03:57:48;;;;;;;12.95;5.97;;;11.30;99.90;;;;;;5068986;28;20024;-60
2023/05/11 04:00:15;;;;;;;11.10;5.32;;;11.30;99.90;;;;;;5069558;28;22182;-60
2023/05/11 04:02:41;;;;;;;15.35;6.53;;;11.30;99.90;;;;;;5063247;28;20031;-61
2023/05/11 04:05:10;;;;;;;12.05;5.28;;;11.30;99.90;;;;;;5062387;28;20112;-60
2023/05/11 04:07:37;;;;;;;12.60;5.88;;;11.30;99.90;;;;;;5071391;28;20036;-61
2023/05/11 04:10:04;;;;;;;15.45;5.43;;;11.30;99.90;;;;;;5074313;28;20461;-61
2023/05/11 04:12:30;;;;;;;14.65;5.47;;;11.30;99.90;;;;;;5063861;28;20024;-60
2023/05/11 04:14:56;;;;;;;10.68;5.47;;;11.30;99.90;;;;;;5079640;28;20035;-60
2023/05/11 04:17:21;;;;;;;16.58;6.05;;;11.30;99.90;;;;;;5065616;28;20032;-61
2023/05/11 04:19:47;;;;;;;12.63;6.28;;;11.30;99.90;;;;;;5066144;28;20028;-59
2023/05/11 04:22:12;;;;;;;14.00;5.85;;;11.40;99.90;;;;;;5067927;28;20396;-59
2023/05/11 04:24:38;;;;;;;14.25;6.28;;;11.40;99.90;;;;;;5065572;28;20496;-52
2023/05/11 04:27:04;;;;;;;14.10;6.28;;;11.40;99.90;;;;;;5069590;28;20028;-60
2023/05/11 04:29:29;;;;;;;10.90;5.32;;;11.40;99.90;;;;;;5069206;28;20381;-54
2023/05/11 04:31:55;;;;;;;13.80;7.65;;;11.30;99.90;;;;;;5063341;28;20032;-60
2023/05/11 04:34:21;;;;;;;13.23;6.95;;;11.40;99.90;;;;;;5071225;28;20488;-59
2023/05/11 04:36:50;;;;;;;16.60;5.85;;;11.30;99.90;;;;;;5065630;28;20036;-59
2023/05/11 04:39:16;;;;;;;13.45;5.85;;;11.40;99.90;;;;;;5066914;28;20060;-60
2023/05/11 04:41:43;;;;;;;11.77;5.95;;;11.40;99.90;;;;;;5069998;28;20051;-60
2023/05/11 04:44:09;;;;;;;16.42;6.28;;;11.50;99.90;;;;;;5069542;28;20704;-61
2023/05/11 04:46:35;;;;;;;16.23;6.40;;;11.50;99.90;;;;;;5072449;28;20054;-61
2023/05/11 04:49:01;;;;;;;13.20;6.15;;;11.60;99.90;;;;;;5069024;28;20111;-60
2023/05/11 04:51:26;;;;;;;10.43;5.85;;;11.60;99.90;;;;;;5062871;28;20041;-62
2023/05/11 04:53:52;;;;;;;16.67;5.85;;;11.70;99.90;;;;;;5062585;28;20033;-57
2023/05/11 04:56:19;;;;;;;13.50;6.03;;;11.70;99.90;;;;;;5069222;28;20600;-60
2023/05/11 04:58:44;;;;;;;11.82;6.22;;;11.80;99.90;;;;;;5062207;28;20032;-60
2023/05/11 05:01:10;;;;;;;19.92;6.78;;;11.80;99.90;;;;;;5063172;28;20336;-58
2023/05/11 05:03:35;;;;;;;14.30;7.18;;;11.90;99.90;;;;;;5062759;28;20124;-61
2023/05/11 05:06:01;;;;;;;23.63;8.90;;;11.90;99.90;;;;;;5069180;28;20304;-58
2023/05/11 05:08:26;;;;;;;18.50;8.73;;;12.00;99.90;;;;;;5068945;28;20082;-58
2023/05/11 05:10:52;;;;;;;20.08;8.32;;;12.10;99.90;;;;;;5070694;28;20031;-60
2023/05/11 05:13:18;;;;;;;25.55;8.82;;;12.10;99.90;;;;;;5064418;28;20069;-58
2023/05/11 05:15:43;;;;;;;25.48;9.75;;;12.10;99.90;;;;;;5065530;28;20070;-61
2023/05/11 05:18:09;;;;;;;24.92;9.32;;;12.10;99.90;;;;;;5068821;28;20407;-57
2023/05/11 05:20:35;;;;;;;21.55;10.10;;;12.20;99.90;;;;;;5069087;28;20063;-59
2023/05/11 05:23:01;;;;;;;24.27;10.00;;;12.20;99.90;;;;;;5070050;28;20024;-59
2023/05/11 05:25:26;;;;;;;31.15;11.48;;;12.20;99.90;;;;;;5070845;28;20037;-60
2023/05/11 05:27:52;;;;;;;26.95;9.98;;;12.20;99.90;;;;;;5067432;28;20047;-61
2023/05/11 05:30:18;;;;;;;29.85;10.93;;;12.20;99.90;;;;;;5068989;28;20034;-59
2023/05/11 05:32:43;;;;;;;37.38;11.32;;;12.20;99.90;;;;;;5069982;28;20407;-59
2023/05/11 05:35:09;;;;;;;29.65;13.20;;;12.20;99.90;;;;;;5067197;28;20471;-59
2023/05/11 05:37:36;;;;;;;28.77;13.30;;;12.30;99.90;;;;;;5066017;28;20036;-61
2023/05/11 05:40:03;;;;;;;29.38;14.23;;;12.30;99.90;;;;;;5062515;28;20046;-60
2023/05/11 05:42:28;;;;;;;33.30;12.90;;;12.30;99.90;;;;;;5067748;28;20800;-59
2023/05/11 05:44:54;;;;;;;31.17;12.57;;;12.30;99.90;;;;;;5072217;28;20120;-54
2023/05/11 05:47:19;;;;;;;36.97;13.05;;;12.30;99.90;;;;;;5070742;28;20078;-57
2023/05/11 05:49:45;;;;;;;27.45;12.57;;;12.40;99.90;;;;;;5073822;28;20450;-59
2023/05/11 05:52:10;;;;;;;29.25;12.57;;;12.40;99.90;;;;;;5075469;28;20032;-57
2023/05/11 05:54:36;;;;;;;27.48;12.05;;;12.50;99.90;;;;;;5069239;28;20135;-56
2023/05/11 05:57:01;;;;;;;29.35;13.77;;;12.50;99.90;;;;;;5066067;28;20495;-61
2023/05/11 05:59:27;;;;;;;29.48;11.82;;;12.40;99.90;;;;;;5067519;28;20040;-58
2023/05/11 06:01:53;;;;;;;26.48;11.65;;;12.50;99.90;;;;;;5073633;28;20032;-58
2023/05/11 06:04:18;;;;;;;31.42;11.35;;;12.60;99.90;;;;;;5071425;28;20077;-61
2023/05/11 06:06:45;;;;;;;30.92;13.00;;;12.60;99.90;;;;;;5071061;28;20052;-59
2023/05/11 06:09:10;;;;;;;27.92;14.00;;;12.50;99.90;;;;;;5073876;28;20027;-56
2023/05/11 06:11:37;;;;;;;25.08;13.13;;;12.60;99.90;;;;;;5075754;28;20016;-60
2023/05/11 06:14:02;;;;;;;35.63;13.15;;;12.60;99.90;;;;;;5072122;28;20047;-60
2023/05/11 06:16:29;;;;;;;31.25;11.38;;;12.70;99.90;;;;;;5070842;28;20033;-59
2023/05/11 06:18:54;;;;;;;29.25;12.25;;;12.70;99.90;;;;;;5076308;28;20102;-58
2023/05/11 06:21:20;;;;;;;22.90;11.45;;;12.70;99.90;;;;;;5071782;28;20590;-57
2023/05/11 06:23:46;;;;;;;27.38;11.85;;;12.80;99.90;;;;;;5072722;28;20025;-57
2023/05/11 06:26:11;;;;;;;26.60;12.05;;;12.80;99.90;;;;;;5075490;28;20063;-56
2023/05/11 06:28:37;;;;;;;28.08;10.80;;;12.80;99.90;;;;;;5071777;28;20082;-59
2023/05/11 06:31:03;;;;;;;33.15;12.40;;;12.90;99.90;;;;;;5077509;28;20032;-57
2023/05/11 06:33:28;;;;;;;36.50;12.48;;;12.90;99.90;;;;;;5070855;28;20028;-59
2023/05/11 06:35:54;;;;;;;28.17;12.57;;;12.90;99.90;;;;;;5072804;28;20127;-62
2023/05/11 06:38:20;;;;;;;30.15;12.15;;;13.00;99.90;;;;;;5071185;28;20064;-59
2023/05/11 06:40:45;;;;;;;25.50;11.75;;;13.00;99.90;;;;;;5072523;28;20070;-59
2023/05/11 06:43:11;;;;;;;28.27;12.07;;;13.00;99.90;;;;;;5072490;28;20024;-58
2023/05/11 06:45:36;;;;;;;26.05;10.85;;;13.10;99.90;;;;;;5071719;28;20055;-61
2023/05/11 06:48:02;;;;;;;28.75;13.50;;;13.20;99.90;;;;;;5072817;28;20028;-60
2023/05/11 06:50:28;;;;;;;37.47;13.02;;;13.20;99.90;;;;;;5071898;28;20025;-61
2023/05/11 06:52:54;;;;;;;28.15;13.13;;;13.20;99.90;;;;;;5072292;28;20029;-61
2023/05/11 06:55:20;;;;;;;31.23;11.32;;;13.30;99.90;;;;;;5072165;28;20029;-61
2023/05/11 06:57:45;;;;;;;28.30;12.30;;;13.40;99.90;;;;;;5071714;28;20032;-61
2023/05/11 07:00:11;;;;;;;33.95;12.48;;;13.50;99.90;;;;;;5071837;28;20032;-61
2023/05/11 07:02:37;;;;;;;31.70;13.20;;;13.40;99.90;;;;;;5072184;28;20028;-55
2023/05/11 07:05:02;;;;;;;25.75;11.52;;;13.40;99.90;;;;;;5072474;28;20013;-57
2023/05/11 07:07:28;;;;;;;22.10;10.52;;;13.40;99.90;;;;;;5071830;28;20035;-56
2023/05/11 07:09:53;;;;;;;28.58;12.05;;;13.40;99.90;;;;;;5071324;28;20403;-59
2023/05/11 07:12:19;;;;;;;33.72;11.57;;;13.40;99.90;;;;;;5071808;28;20028;-60
2023/05/11 07:14:44;;;;;;;30.33;11.63;;;13.50;99.90;;;;;;5072140;28;20027;-62
2023/05/11 07:17:10;;;;;;;24.27;12.68;;;13.60;99.90;;;;;;5073569;28;20121;-61
2023/05/11 07:19:36;;;;;;;30.45;12.93;;;13.60;99.90;;;;;;5071348;28;20067;-61
2023/05/11 07:22:02;;;;;;;28.33;12.63;;;13.60;99.90;;;;;;5073441;28;20085;-62
2023/05/11 07:24:27;;;;;;;29.77;12.23;;;13.70;99.90;;;;;;5070997;28;20048;-62
2023/05/11 07:26:54;;;;;;;28.75;12.50;;;13.80;99.90;;;;;;5067946;28;20055;-61
2023/05/11 07:29:20;;;;;;;27.08;13.23;;;13.90;99.90;;;;;;5069681;28;20036;-60
2023/05/11 07:31:46;;;;;;;28.65;14.02;;;14.00;99.90;;;;;;5069668;28;20029;-61
2023/05/11 07:34:12;;;;;;;34.55;14.10;;;13.90;99.90;;;;;;5064158;28;20032;-62
2023/05/11 07:36:37;;;;;;;40.55;14.05;;;14.00;99.90;;;;;;5070898;28;20538;-59
2023/05/11 07:39:03;;;;;;;30.60;15.40;;;14.10;99.90;;;;;;5070847;28;20025;-61
2023/05/11 07:41:28;;;;;;;34.72;15.73;;;13.90;99.90;;;;;;5068988;28;20027;-62
2023/05/11 07:43:54;;;;;;;45.33;15.95;;;13.90;99.90;;;;;;5070949;28;20063;-62
2023/05/11 07:46:21;;;;;;;30.23;13.52;;;14.00;99.90;;;;;;5065396;28;20451;-62
2023/05/11 07:48:46;;;;;;;33.53;14.13;;;14.20;99.90;;;;;;5069742;28;20112;-60
2023/05/11 07:51:12;;;;;;;30.35;15.32;;;14.20;99.90;;;;;;5066421;28;20028;-58
2023/05/11 07:53:38;;;;;;;33.05;13.73;;;14.30;99.90;;;;;;5068155;28;20484;-59
2023/05/11 07:56:04;;;;;;;27.30;14.65;;;14.40;99.90;;;;;;5070912;28;20021;-61
2023/05/11 07:58:29;;;;;;;29.75;13.80;;;14.20;99.90;;;;;;5067511;28;20028;-58
2023/05/11 08:00:56;;;;;;;34.28;14.13;;;14.40;99.90;;;;;;5068786;28;20549;-62
2023/05/11 08:03:21;;;;;;;39.78;14.48;;;14.60;99.90;;;;;;5070836;28;20104;-61
2023/05/11 08:05:47;;;;;;;30.75;15.50;;;14.60;99.90;;;;;;5068213;28;20151;-60
2023/05/11 08:08:12;;;;;;;25.52;13.70;;;14.70;99.90;;;;;;5070723;28;20154;-61
2023/05/11 08:10:38;;;;;;;26.20;11.23;;;14.80;99.90;;;;;;5069788;28;20552;-59
2023/05/11 08:13:04;;;;;;;23.48;11.27;;;14.80;99.90;;;;;;5069861;28;20132;-60
2023/05/11 08:15:29;;;;;;;27.55;12.27;;;14.90;99.90;;;;;;5067706;28;20030;-61
2023/05/11 08:17:55;;;;;;;23.15;13.05;;;15.00;99.90;;;;;;5067896;28;20043;-60
2023/05/11 08:20:21;;;;;;;25.52;13.00;;;14.90;99.90;;;;;;5066348;28;20147;-61
2023/05/11 08:22:46;;;;;;;25.27;13.60;;;14.90;99.90;;;;;;5067288;28;20542;-62
2023/05/11 08:25:12;;;;;;;32.83;12.85;;;14.90;99.90;;;;;;5063823;28;20111;-61
2023/05/11 08:27:38;;;;;;;28.63;13.48;;;14.90;99.90;;;;;;5068451;28;20519;-60
2023/05/11 08:30:04;;;;;;;28.02;12.10;;;14.80;99.90;;;;;;5070059;28;20040;-61
2023/05/11 08:32:30;;;;;;;31.25;13.82;;;14.90;99.90;;;;;;5069942;28;20029;-62
2023/05/11 08:34:56;;;;;;;26.52;12.85;;;14.80;99.90;;;;;;5069111;28;20025;-61
2023/05/11 08:37:22;;;;;;;23.95;12.07;;;14.80;99.90;;;;;;5068698;28;20085;-58
2023/05/11 08:39:47;;;;;;;23.25;11.98;;;14.90;99.90;;;;;;5074377;28;20167;-62
2023/05/11 08:42:15;;;;;;;27.58;12.40;;;15.00;99.90;;;;;;5069180;28;20126;-62
2023/05/11 08:44:43;;;;;;;29.15;12.50;;;15.20;99.90;;;;;;5069178;28;20032;-60
2023/05/11 08:47:09;;;;;;;22.48;10.95;;;15.20;99.90;;;;;;5070871;28;20028;-62
2023/05/11 08:49:36;;;;;;;22.08;10.93;;;15.30;99.90;;;;;;5068482;28;20073;-62
2023/05/11 08:52:04;;;;;;;21.13;11.15;;;15.40;99.90;;;;;;5063744;28;20025;-60
2023/05/11 08:54:30;;;;;;;19.95;10.98;;;15.40;99.90;;;;;;5067522;28;20400;-62
2023/05/11 08:56:57;;;;;;;19.77;10.63;;;15.40;99.90;;;;;;5068256;28;20036;-62
2023/05/11 08:59:27;;;;;;;18.70;10.27;;;15.40;99.90;;;;;;5066407;28;20465;-62
2023/05/11 09:01:54;;;;;;;17.52;10.43;;;15.40;99.90;;;;;;5069174;28;20374;-62
2023/05/11 09:04:23;;;;;;;21.02;10.60;;;15.40;99.90;;;;;;5069638;28;20102;-59
2023/05/11 09:06:50;;;;;;;24.25;10.85;;;15.20;99.90;;;;;;5069555;28;20035;-61
2023/05/11 09:09:17;;;;;;;21.35;11.20;;;15.40;99.90;;;;;;5068811;28;20063;-62
2023/05/11 09:11:43;;;;;;;23.70;10.52;;;15.50;99.90;;;;;;5068107;28;20481;-61
2023/05/11 09:14:09;;;;;;;16.23;8.77;;;15.40;99.90;;;;;;5068952;28;20138;-62
2023/05/11 09:16:35;;;;;;;19.15;10.32;;;15.50;99.90;;;;;;5069457;28;20032;-59
2023/05/11 09:19:01;;;;;;;20.05;10.32;;;15.70;99.90;;;;;;5065837;28;20032;-61
2023/05/11 09:21:29;;;;;;;18.25;9.77;;;15.70;99.90;;;;;;5070055;28;20048;-60
2023/05/11 09:23:59;;;;;;;17.58;9.02;;;15.80;99.90;;;;;;5070149;28;20028;-61
2023/05/11 09:26:27;;;;;;;16.45;9.77;;;15.80;99.90;;;;;;5071895;28;20020;-62
2023/05/11 09:28:57;;;;;;;14.70;9.05;;;15.90;99.90;;;;;;5069159;28;20036;-62
2023/05/11 09:31:49;;;;;;;17.45;9.70;;;15.90;99.90;;;;;;5065921;28;20077;-61
2023/05/11 09:34:19;;;;;;;17.38;9.70;;;16.00;99.90;;;;;;5062681;28;20032;-59
2023/05/11 09:36:50;;;;;;;16.73;9.05;;;15.90;99.90;;;;;;5072254;28;20033;-61
2023/05/11 09:39:18;;;;;;;20.52;11.00;;;16.00;99.90;;;;;;5075053;28;20029;-60
2023/05/11 09:41:44;;;;;;;23.30;9.45;;;15.90;99.90;;;;;;5072782;28;20108;-59
2023/05/11 09:44:12;;;;;;;19.45;10.88;;;15.70;99.90;;;;;;5073283;28;20434;-61
2023/05/11 09:46:39;;;;;;;19.70;8.95;;;15.70;99.90;;;;;;5069779;28;20448;-59
2023/05/11 09:49:05;;;;;;;15.20;8.13;;;15.60;99.90;;;;;;5072019;28;20043;-61
2023/05/11 09:51:34;;;;;;;20.25;7.80;;;15.30;99.90;;;;;;5073005;28;20028;-59
2023/05/11 09:54:03;;;;;;;11.07;6.57;;;15.30;99.90;;;;;;5073186;28;20112;-62
2023/05/11 09:56:53;;;;;;;13.70;6.38;;;15.30;99.90;;;;;;5068523;28;20020;-60
2023/05/11 09:59:39;;;;;;;11.57;6.57;;;15.40;99.90;;;;;;5068870;28;20033;-60
2023/05/11 10:02:33;;;;;;;16.35;5.95;;;15.30;99.90;;;;;;5072435;28;20035;-61
2023/05/11 10:05:09;;;;;;;10.18;6.15;;;15.50;99.90;;;;;;5059372;28;20036;-60
2023/05/11 10:07:35;;;;;;;17.45;6.18;;;15.30;99.90;;;;;;5072156;28;20025;-62
2023/05/11 10:10:03;;;;;;;18.52;6.43;;;15.50;99.90;;;;;;5069816;28;20032;-62
2023/05/11 10:12:31;;;;;;;16.70;7.45;;;15.70;99.90;;;;;;5072897;28;20016;-62
2023/05/11 10:15:03;;;;;;;18.30;7.32;;;15.50;99.90;;;;;;5066355;28;20027;-60
2023/05/11 10:17:29;;;;;;;16.30;7.03;;;15.50;99.90;;;;;;5070441;28;20024;-60
2023/05/11 10:19:56;;;;;;;16.13;8.52;;;15.70;99.90;;;;;;5072740;28;20020;-60
2023/05/11 10:22:26;;;;;;;20.88;7.82;;;15.70;99.90;;;;;;5070200;28;20099;-61
2023/05/11 10:24:52;;;;;;;26.02;8.85;;;15.70;99.90;;;;;;5072764;28;20103;-58
2023/05/11 10:27:19;;;;;;;17.85;8.85;;;15.80;99.90;;;;;;5072608;28;20017;-61
2023/05/11 10:29:45;;;;;;;17.77;9.48;;;15.90;99.90;;;;;;5072275;28;20045;-60
2023/05/11 10:32:11;;;;;;;27.52;10.93;;;15.90;99.90;;;;;;5072337;28;20066;-61
2023/05/11 10:34:40;;;;;;;29.90;10.63;;;15.90;99.90;;;;;;5070256;28;20017;-61
2023/05/11 10:37:05;;;;;;;27.38;11.23;;;16.00;99.90;;;;;;5073840;28;20074;-60
2023/05/11 10:39:32;;;;;;;25.33;9.88;;;16.20;99.90;;;;;;5070411;28;20032;-61
2023/05/11 10:42:03;;;;;;;30.55;12.60;;;16.30;99.90;;;;;;5071511;28;20307;-57
2023/05/11 10:44:46;;;;;;;24.83;11.75;;;16.40;99.90;;;;;;5067094;28;20044;-59
2023/05/11 10:47:30;;;;;;;29.30;11.88;;;16.30;99.90;;;;;;5073889;28;20109;-60
2023/05/11 10:50:29;;;;;;;27.52;12.10;;;16.40;99.90;;;;;;5070777;28;20024;-59
2023/05/11 10:53:01;;;;;;;43.70;15.23;;;16.50;99.90;;;;;;5066519;28;20584;-60
2023/05/11 10:55:35;;;;;;;32.67;13.07;;;16.50;99.90;;;;;;5069939;28;20032;-60
2023/05/11 10:58:06;;;;;;;37.13;16.95;;;16.50;99.90;;;;;;5067406;28;20036;-60
2023/05/11 11:00:47;;;;;;;36.42;16.20;;;16.60;99.90;;;;;;5068179;28;20423;-62
2023/05/11 11:03:13;;;;;;;35.38;15.20;;;16.50;99.90;;;;;;5071103;28;20025;-58
2023/05/11 11:05:42;;;;;;;33.30;15.15;;;16.30;99.90;;;;;;5070713;28;20021;-59
2023/05/11 11:08:08;;;;;;;29.05;13.55;;;16.40;99.90;;;;;;5071337;28;20044;-59
2023/05/11 11:10:39;;;;;;;25.73;10.82;;;16.40;99.90;;;;;;5070059;28;20038;-59
2023/05/11 11:13:06;;;;;;;27.80;11.52;;;16.50;99.90;;;;;;5071142;28;20025;-59
2023/05/11 11:15:53;;;;;;;24.27;10.77;;;16.60;99.90;;;;;;5070684;28;20031;-59
2023/05/11 11:18:27;;;;;;;28.10;11.23;;;16.70;99.90;;;;;;5068914;28;22111;-62
2023/05/11 11:20:54;;;;;;;21.48;9.65;;;16.70;99.90;;;;;;5070016;28;20089;-58
2023/05/11 11:23:38;;;;;;;32.83;10.82;;;16.80;99.90;;;;;;5070621;28;20020;-59
2023/05/11 11:26:05;;;;;;;26.27;11.98;;;16.90;99.90;;;;;;5070645;28;20020;-60
2023/05/11 11:28:56;;;;;;;24.67;10.75;;;16.90;99.90;;;;;;5066492;28;20043;-59
2023/05/11 11:31:26;;;;;;;25.30;8.93;;;17.20;99.90;;;;;;5071244;28;20108;-59
2023/05/11 11:33:52;;;;;;;17.17;8.18;;;17.40;99.90;;;;;;5070198;28;20024;-61
2023/05/11 11:39:42;;;;;;;29.92;10.98;;;17.70;99.90;;;;;;5141753;27;20393;-60
2023/05/11 11:42:15;;;;;;;20.40;10.95;;;17.70;99.90;;;;;;5128460;28;20027;-62
2023/05/11 11:44:43;;;;;;;25.53;9.77;;;17.70;99.90;;;;;;5126634;27;20036;-62
2023/05/11 11:47:21;;;;;;;27.42;9.55;;;18.00;99.90;;;;;;5127763;28;20273;-60
2023/05/11 11:49:52;;;;;;;28.33;11.25;;;18.00;99.90;;;;;;5123315;28;20528;-61
2023/05/11 11:52:29;;;;;;;25.70;11.07;;;17.80;99.90;;;;;;5128761;27;20038;-61
2023/05/11 11:54:59;;;;;;;22.70;9.13;;;18.00;99.90;;;;;;5127171;28;20088;-62
2023/05/11 11:57:31;;;;;;;19.35;7.72;;;18.10;99.90;;;;;;5127067;28;20035;-61
2023/05/11 11:59:58;;;;;;;19.88;8.13;;;18.30;99.90;;;;;;5127902;28;20116;-61
2023/05/11 12:02:25;;;;;;;20.60;8.63;;;18.20;99.90;;;;;;5127691;28;20046;-61
2023/05/11 12:05:31;;;;;;;21.42;9.25;;;17.90;99.90;;;;;;5123654;28;20020;-60
2023/05/11 12:08:04;;;;;;;18.02;9.25;;;18.10;99.90;;;;;;5061341;28;20048;-61
2023/05/11 12:10:30;;;;;;;17.58;9.10;;;18.40;99.90;;;;;;5117008;28;20366;-61
2023/05/11 12:12:58;;;;;;;20.98;9.05;;;18.40;99.90;;;;;;5124544;28;20448;-58
2023/05/11 12:15:30;;;;;;;15.52;7.20;;;18.30;99.90;;;;;;5127951;27;20046;-62
2023/05/11 12:17:56;;;;;;;22.63;8.85;;;18.20;99.90;;;;;;5123934;27;20015;-63
2023/05/11 12:20:21;;;;;;;18.63;9.85;;;18.40;99.90;;;;;;5126467;27;20030;-62
2023/05/11 12:22:48;;;;;;;19.98;7.70;;;18.40;99.90;;;;;;5122302;27;20114;-59
2023/05/11 12:25:18;;;;;;;23.38;8.50;;;18.60;99.90;;;;;;5127212;28;20538;-62
2023/05/11 12:27:46;;;;;;;20.92;9.38;;;18.60;99.90;;;;;;5126581;28;20512;-62
2023/05/11 12:30:23;;;;;;;18.70;8.60;;;18.60;99.90;;;;;;5124607;28;20023;-62
2023/05/11 12:32:49;;;;;;;28.70;9.75;;;18.60;99.90;;;;;;5127565;28;20080;-60
2023/05/11 12:35:28;;;;;;;20.85;9.68;;;18.50;99.90;;;;;;5127544;27;20054;-61
2023/05/11 12:37:55;;;;;;;27.10;9.70;;;18.40;99.90;;;;;;5123651;28;20107;-58
2023/05/11 12:40:20;;;;;;;32.08;11.70;;;18.50;99.90;;;;;;5126983;27;20099;-62
2023/05/11 12:42:57;;;;;;;32.95;11.30;;;18.10;99.90;;;;;;5126157;28;20023;-61